createdAt,value
2023-03-15T00:02:25.243Z,100202.13
2023-03-15T00:04:54.908Z,100202.00
2023-03-15T00:07:26.207Z,100206.81
2023-03-15T00:09:55.963Z,100207.78
2023-03-15T00:12:28.236Z,100215.72
2023-03-15T00:14:57.772Z,100221.28
2023-03-15T00:17:27.135Z,100224.66
2023-03-15T00:19:56.573Z,100229.84
2023-03-15T00:22:26.084Z,100235.16
2023-03-15T00:24:55.626Z,100238.13
2023-03-15T00:27:25.039Z,100229.47
2023-03-15T00:29:57.163Z,100233.03
2023-03-15T00:32:26.738Z,100230.34
2023-03-15T00:34:56.110Z,100232.31
2023-03-15T00:37:25.790Z,100235.06
2023-03-15T00:39:57.814Z,100238.19
2023-03-15T00:42:29.013Z,100240.81
2023-03-15T00:45:00.989Z,100252.78
2023-03-15T00:47:32.607Z,100249.28
2023-03-15T00:50:01.937Z,100262.13
2023-03-15T00:52:37.531Z,100263.44
2023-03-15T00:55:08.170Z,100261.19
2023-03-15T00:57:37.484Z,100262.91
2023-03-15T01:00:13.191Z,100274.91
2023-03-15T01:02:42.968Z,100272.66
2023-03-15T01:05:13.441Z,100274.56
2023-03-15T01:07:45.674Z,100285.16
2023-03-15T01:10:16.393Z,100284.09
2023-03-15T01:12:45.915Z,100290.06
2023-03-15T01:15:18.553Z,100284.28
2023-03-15T01:17:47.987Z,100284.25
2023-03-15T01:20:17.753Z,100279.50
2023-03-15T01:22:47.224Z,100287.22
2023-03-15T01:25:16.672Z,100289.09
2023-03-15T01:27:45.990Z,100298.00
2023-03-15T01:30:18.293Z,100296.69
2023-03-15T01:32:47.599Z,100303.69
2023-03-15T01:35:16.918Z,100303.88
2023-03-15T01:37:46.210Z,100306.50
2023-03-15T01:40:16.482Z,100302.25
2023-03-15T01:43:19.755Z,100301.41
2023-03-15T01:46:08.517Z,100300.25
2023-03-15T01:48:44.773Z,100309.59
2023-03-15T01:51:22.419Z,100307.38
2023-03-15T01:53:55.760Z,100319.19
2023-03-15T01:56:26.592Z,100319.25
2023-03-15T01:58:59.533Z,100317.81
2023-03-15T02:01:32.750Z,100326.19
2023-03-15T02:04:09.295Z,100325.78
2023-03-15T02:06:39.728Z,100327.22
2023-03-15T02:09:14.882Z,100321.72
2023-03-15T02:11:45.599Z,100329.66
2023-03-15T02:14:16.329Z,100333.59
2023-03-15T02:16:48.222Z,100330.34
2023-03-15T02:19:31.864Z,100330.66
2023-03-15T02:22:09.645Z,100336.63
2023-03-15T02:24:46.486Z,100340.03
2023-03-15T02:27:15.956Z,100334.91
2023-03-15T02:29:47.972Z,100337.19
2023-03-15T02:32:17.262Z,100341.84
2023-03-15T02:34:46.552Z,100351.44
2023-03-15T02:37:15.843Z,100347.53
2023-03-15T02:39:45.108Z,100352.88
2023-03-15T02:42:14.802Z,100353.94
2023-03-15T02:44:48.717Z,100356.19
2023-03-15T02:47:21.554Z,100357.59
2023-03-15T02:49:54.035Z,100360.44
2023-03-15T02:52:24.258Z,100360.00
2023-03-15T02:54:54.299Z,100370.47
2023-03-15T02:57:23.938Z,100382.78
2023-03-15T02:59:56.953Z,100386.03
2023-03-15T03:02:26.496Z,100390.31
2023-03-15T03:04:56.190Z,100390.31
2023-03-15T03:07:25.589Z,100384.59
2023-03-15T03:09:54.867Z,100393.81
2023-03-15T03:12:24.232Z,100394.81
2023-03-15T03:14:56.693Z,100395.63
2023-03-15T03:17:26.739Z,100403.59
2023-03-15T03:19:56.232Z,100408.34
2023-03-15T03:22:26.085Z,100410.22
2023-03-15T03:24:55.487Z,100415.72
2023-03-15T03:27:24.883Z,100421.69
2023-03-15T03:29:56.822Z,100427.56
2023-03-15T03:32:26.173Z,100443.69
2023-03-15T03:34:55.513Z,100437.38
2023-03-15T03:37:24.882Z,100442.91
2023-03-15T03:39:54.325Z,100446.59
2023-03-15T03:42:23.694Z,100453.34
2023-03-15T03:44:54.503Z,100457.22
2023-03-15T03:47:26.505Z,100461.53
2023-03-15T03:49:55.794Z,100467.44
2023-03-15T03:52:25.119Z,100467.84
2023-03-15T03:54:54.396Z,100474.81
2023-03-15T03:57:23.685Z,100485.44
2023-03-15T03:59:52.959Z,100492.19
2023-03-15T04:02:22.254Z,100493.38
2023-03-15T04:04:54.179Z,100503.03
2023-03-15T04:07:23.518Z,100506.09
2023-03-15T04:09:52.801Z,100509.78
2023-03-15T04:12:22.141Z,100506.72
2023-03-15T04:14:51.520Z,100505.06
2023-03-15T04:17:20.800Z,100517.97
2023-03-15T04:19:50.056Z,100518.56
2023-03-15T04:22:21.976Z,100522.88
2023-03-15T04:24:54.488Z,100528.41
2023-03-15T04:27:23.801Z,100536.00
2023-03-15T04:29:53.047Z,100540.28
2023-03-15T04:32:22.630Z,100546.41
2023-03-15T04:34:52.384Z,100551.72
2023-03-15T04:37:24.349Z,100547.63
2023-03-15T04:39:54.192Z,100553.59
2023-03-15T04:42:26.131Z,100562.38
2023-03-15T04:44:56.490Z,100570.34
2023-03-15T04:47:25.727Z,100577.50
2023-03-15T04:49:55.000Z,100574.03
2023-03-15T04:52:27.010Z,100567.69
2023-03-15T04:54:56.333Z,100581.59
2023-03-15T04:57:25.649Z,100582.63
2023-03-15T04:59:54.912Z,100576.50
2023-03-15T05:02:24.194Z,100574.81
2023-03-15T05:04:53.543Z,100573.59
2023-03-15T05:07:22.884Z,100572.78
2023-03-15T05:09:55.758Z,100560.72
2023-03-15T05:12:25.178Z,100570.34
2023-03-15T05:14:54.630Z,100583.84
2023-03-15T05:17:24.558Z,100584.88
2023-03-15T05:19:54.433Z,100597.97
2023-03-15T05:22:26.006Z,100594.91
2023-03-15T05:24:57.931Z,100607.97
2023-03-15T05:27:28.392Z,100607.59
2023-03-15T05:29:57.743Z,100619.66
2023-03-15T05:32:27.102Z,100611.19
2023-03-15T05:34:57.260Z,100628.84
2023-03-15T05:37:26.957Z,100635.00
2023-03-15T05:39:59.620Z,100640.09
2023-03-15T05:42:29.510Z,100639.31
2023-03-15T05:44:59.919Z,100645.19
2023-03-15T05:47:29.180Z,100644.59
2023-03-15T05:49:58.405Z,100648.09
2023-03-15T05:52:27.674Z,100651.16
2023-03-15T05:54:59.517Z,100655.88
2023-03-15T05:57:28.753Z,100653.63
2023-03-15T05:59:57.975Z,100669.41
2023-03-15T06:02:27.631Z,100669.59
2023-03-15T06:04:56.821Z,100673.50
2023-03-15T06:07:26.036Z,100664.66
2023-03-15T06:09:55.275Z,100672.06
2023-03-15T06:12:27.139Z,100674.31
2023-03-15T06:14:56.395Z,100681.44
2023-03-15T06:17:25.609Z,100685.13
2023-03-15T06:19:54.828Z,100689.84
2023-03-15T06:22:24.511Z,100695.59
2023-03-15T06:24:53.738Z,100698.03
2023-03-15T06:27:23.315Z,100704.59
2023-03-15T06:29:56.103Z,100715.25
2023-03-15T06:32:25.543Z,100713.19
2023-03-15T06:34:55.153Z,100710.72
2023-03-15T06:37:34.711Z,100724.66
2023-03-15T06:40:06.224Z,100724.75
2023-03-15T06:42:36.018Z,100732.94
2023-03-15T06:45:09.818Z,100739.38
2023-03-15T06:47:39.085Z,100750.72
2023-03-15T06:50:09.664Z,100757.03
2023-03-15T06:52:38.905Z,100755.50
2023-03-15T06:55:10.262Z,100771.06
2023-03-15T06:57:39.488Z,100769.75
2023-03-15T07:00:13.320Z,100766.47
2023-03-15T07:02:42.610Z,100774.31
2023-03-15T07:05:13.674Z,100782.13
2023-03-15T07:07:43.380Z,100780.69
2023-03-15T07:10:13.900Z,100788.84
2023-03-15T07:12:43.105Z,100781.94
2023-03-15T07:15:17.080Z,100783.47
2023-03-15T07:17:46.635Z,100790.28
2023-03-15T07:20:15.942Z,100791.41
2023-03-15T07:22:45.620Z,100796.28
2023-03-15T07:25:14.903Z,100802.28
2023-03-15T07:27:44.499Z,100814.25
2023-03-15T07:30:16.970Z,100812.25
2023-03-15T07:32:46.676Z,100813.50
2023-03-15T07:35:18.082Z,100812.56
2023-03-15T07:37:47.630Z,100817.00
2023-03-15T07:40:17.090Z,100823.13
2023-03-15T07:42:46.437Z,100823.31
2023-03-15T07:45:18.352Z,100824.84
2023-03-15T07:47:47.571Z,100823.44
2023-03-15T07:50:17.629Z,100818.97
2023-03-15T07:52:46.851Z,100826.25
2023-03-15T07:55:16.065Z,100849.50
2023-03-15T07:57:45.266Z,100844.94
2023-03-15T08:00:18.385Z,100858.16
2023-03-15T08:02:47.653Z,100868.13
2023-03-15T08:05:19.031Z,100866.53
2023-03-15T08:07:48.616Z,100870.09
2023-03-15T08:10:18.981Z,100863.97
2023-03-15T08:12:48.902Z,100877.34
2023-03-15T08:15:22.112Z,100895.09
2023-03-15T08:17:51.555Z,100900.09
2023-03-15T08:20:20.852Z,100905.41
2023-03-15T08:22:51.400Z,100920.44
2023-03-15T08:25:23.365Z,100922.44
2023-03-15T08:27:53.227Z,100925.78
2023-03-15T08:30:25.401Z,100925.03
2023-03-15T08:32:55.175Z,100917.72
2023-03-15T08:35:25.178Z,100916.94
2023-03-15T08:37:55.528Z,100925.53
2023-03-15T08:40:27.623Z,100934.28
2023-03-15T08:42:58.555Z,100932.03
2023-03-15T08:45:33.010Z,100949.50
2023-03-15T08:48:03.271Z,100938.78
2023-03-15T08:50:32.924Z,100949.66
2023-03-15T08:53:04.105Z,100948.81
2023-03-15T08:55:33.565Z,100950.91
2023-03-15T09:00:40.508Z,100955.81
2023-03-15T09:03:09.715Z,100966.34
2023-03-15T09:05:38.999Z,100967.06
2023-03-15T09:08:08.226Z,100976.09
2023-03-15T09:10:37.458Z,100978.44
2023-03-15T09:13:06.660Z,100984.19
2023-03-15T09:15:35.919Z,100978.31
2023-03-15T09:18:08.295Z,100976.28
2023-03-15T09:20:40.084Z,100981.84
2023-03-15T09:23:09.314Z,100981.44
2023-03-15T09:25:38.588Z,100975.56
2023-03-15T09:28:08.950Z,100985.53
2023-03-15T09:30:39.079Z,100979.69
2023-03-15T09:33:14.648Z,100975.81
2023-03-15T09:35:44.389Z,100974.56
2023-03-15T09:38:13.801Z,100983.09
2023-03-15T09:40:46.128Z,100983.97
2023-03-15T09:43:38.390Z,100980.28
2023-03-15T09:46:21.727Z,100984.72
2023-03-15T09:48:59.212Z,100980.00
2023-03-15T09:51:39.120Z,100987.19
2023-03-15T09:54:14.164Z,100985.28
2023-03-15T09:56:57.742Z,100984.91
2023-03-15T09:59:32.685Z,100989.09
2023-03-15T10:02:06.385Z,100989.25
2023-03-15T10:04:42.264Z,100986.22
2023-03-15T10:07:16.651Z,100995.47
2023-03-15T10:09:46.242Z,100986.69
2023-03-15T10:12:18.517Z,100996.53
2023-03-15T10:15:19.473Z,100996.69
2023-03-15T10:17:59.146Z,100976.84
2023-03-15T10:20:34.676Z,100989.16
2023-03-15T10:23:08.026Z,100985.22
2023-03-15T10:25:40.125Z,100988.31
2023-03-15T10:28:16.027Z,100994.25
2023-03-15T10:30:49.819Z,100995.88
2023-03-15T10:33:26.273Z,100988.97
2023-03-15T10:36:07.848Z,100996.38
2023-03-15T10:38:41.820Z,100983.44
2023-03-15T10:41:17.845Z,100993.06
2023-03-15T10:44:01.617Z,100988.41
2023-03-15T10:46:30.933Z,100987.97
2023-03-15T10:49:01.751Z,100991.69
2023-03-15T10:51:35.378Z,100974.44
2023-03-15T10:54:07.967Z,100988.38
2023-03-15T10:56:44.600Z,100990.84
2023-03-15T10:59:19.777Z,100972.56
2023-03-15T11:01:51.080Z,100977.72
2023-03-15T11:04:22.894Z,100981.41
2023-03-15T11:07:03.793Z,100979.78
2023-03-15T11:09:42.697Z,100989.22
2023-03-15T11:12:13.219Z,100987.78
2023-03-15T11:14:46.233Z,101020.78
2023-03-15T11:17:20.669Z,101049.78
2023-03-15T11:19:57.294Z,101050.81
2023-03-15T11:22:30.193Z,101067.34
2023-03-15T11:24:59.550Z,101071.78
2023-03-15T11:27:31.827Z,101068.00
2023-03-15T11:30:04.422Z,101064.00
2023-03-15T11:32:35.600Z,101051.19
2023-03-15T11:35:08.666Z,101067.88
2023-03-15T11:37:45.372Z,101068.84
2023-03-15T11:40:20.290Z,101066.66
2023-03-15T11:42:52.340Z,101072.94
2023-03-15T11:45:29.758Z,101070.00
2023-03-15T11:48:03.583Z,101064.34
2023-03-15T11:50:32.791Z,101070.25
2023-03-15T11:53:06.910Z,101075.25
2023-03-15T11:55:36.591Z,101075.47
2023-03-15T11:58:31.045Z,101057.75
2023-03-15T12:01:04.637Z,101059.91
2023-03-15T12:03:40.389Z,101060.31
2023-03-15T12:06:38.567Z,101059.53
2023-03-15T12:09:37.597Z,101057.88
2023-03-15T12:12:41.505Z,101056.47
2023-03-15T12:15:45.554Z,101050.28
2023-03-15T12:18:20.494Z,101051.53
2023-03-15T12:20:55.868Z,101052.78
2023-03-15T12:23:39.374Z,101062.22
2023-03-15T12:26:11.751Z,101056.72
2023-03-15T12:28:52.038Z,101052.81
2023-03-15T12:31:22.308Z,101065.16
2023-03-15T12:33:55.017Z,101054.47
2023-03-15T12:36:37.319Z,101058.78
2023-03-15T12:39:24.554Z,101060.84
2023-03-15T12:41:54.672Z,101059.38
2023-03-15T12:44:41.306Z,101067.16
2023-03-15T12:47:11.844Z,101076.22
2023-03-15T12:49:44.446Z,101081.16
2023-03-15T12:52:37.169Z,101102.47
2023-03-15T12:55:16.719Z,101096.66
2023-03-15T12:57:52.402Z,101090.84
2023-03-15T13:00:26.194Z,101096.78
2023-03-15T13:03:02.174Z,101100.47
2023-03-15T13:05:37.495Z,101104.16
2023-03-15T13:08:10.990Z,101102.34
2023-03-15T13:10:59.217Z,101131.84
2023-03-15T13:13:39.246Z,101154.84
2023-03-15T13:16:27.944Z,101155.53
2023-03-15T13:19:05.288Z,101146.91
2023-03-15T13:21:37.690Z,101163.28
2023-03-15T13:24:16.639Z,101162.59
2023-03-15T13:26:58.081Z,101140.81
2023-03-15T13:29:32.279Z,101126.91
2023-03-15T13:32:15.673Z,101117.53
2023-03-15T13:34:46.934Z,101118.13
2023-03-15T13:37:21.726Z,101131.88
2023-03-15T13:39:59.692Z,101122.03
2023-03-15T13:42:29.326Z,101120.63
2023-03-15T13:45:15.039Z,101118.38
2023-03-15T13:47:48.900Z,101123.31
2023-03-15T13:50:20.573Z,101132.16
2023-03-15T13:52:50.978Z,101122.09
2023-03-15T13:55:25.315Z,101123.94
2023-03-15T13:58:00.254Z,101126.44
2023-03-15T14:00:30.139Z,101128.53
2023-03-15T14:03:05.692Z,101123.41
2023-03-15T14:05:37.312Z,101120.94
2023-03-15T14:08:09.713Z,101123.03
2023-03-15T14:10:40.613Z,101117.47
2023-03-15T14:13:25.115Z,101126.72
2023-03-15T14:15:59.918Z,101119.16
2023-03-15T14:18:34.317Z,101125.06
2023-03-15T14:21:05.761Z,101123.25
2023-03-15T14:23:38.526Z,101126.94
2023-03-15T14:26:15.551Z,101116.47
2023-03-15T14:28:50.551Z,101115.25
2023-03-15T14:31:26.112Z,101129.00
2023-03-15T14:34:00.911Z,101114.41
2023-03-15T14:36:35.435Z,101116.06
2023-03-15T14:39:04.878Z,101110.94
2023-03-15T14:41:37.119Z,101111.94
2023-03-15T14:44:06.467Z,101113.19
2023-03-15T14:46:35.703Z,101112.16
2023-03-15T14:49:07.538Z,101132.69
2023-03-15T14:51:36.787Z,101118.94
2023-03-15T14:54:06.634Z,101127.78
2023-03-15T14:56:36.898Z,101124.09
2023-03-15T14:59:12.178Z,101123.25
2023-03-15T15:01:46.489Z,101148.44
2023-03-15T15:04:20.002Z,101195.81
2023-03-15T15:06:54.063Z,101218.69
2023-03-15T15:09:26.316Z,101223.31
2023-03-15T15:11:56.878Z,101235.63
2023-03-15T15:14:26.158Z,101235.38
2023-03-15T15:16:55.861Z,101249.63
2023-03-15T15:19:27.734Z,101261.88
2023-03-15T15:21:57.088Z,101271.47
2023-03-15T15:24:29.076Z,101278.81
2023-03-15T15:26:58.352Z,101272.41
2023-03-15T15:29:27.562Z,101262.22
2023-03-15T15:31:56.878Z,101231.16
2023-03-15T15:34:29.217Z,101233.03
2023-03-15T15:36:59.006Z,101228.44
2023-03-15T15:39:29.719Z,101223.91
2023-03-15T15:41:59.155Z,101223.81
2023-03-15T15:44:28.408Z,101224.81
2023-03-15T15:46:57.787Z,101226.22
2023-03-15T15:49:29.598Z,101223.81
2023-03-15T15:51:58.918Z,101226.06
2023-03-15T15:54:30.549Z,101221.31
2023-03-15T15:57:04.059Z,101226.44
2023-03-15T15:59:33.797Z,101225.25
2023-03-15T16:02:04.662Z,101226.25
2023-03-15T16:04:36.498Z,101224.28
2023-03-15T16:07:08.043Z,101233.72
2023-03-15T16:09:38.393Z,101234.22
2023-03-15T16:12:15.329Z,101228.84
2023-03-15T16:14:45.716Z,101234.66
2023-03-15T16:17:17.375Z,101238.31
2023-03-15T16:19:49.172Z,101234.22
2023-03-15T16:22:19.831Z,101238.97
2023-03-15T16:24:52.639Z,101240.22
2023-03-15T16:27:26.882Z,101244.16
2023-03-15T16:29:57.715Z,101244.31
2023-03-15T16:32:43.028Z,101252.34
2023-03-15T16:35:16.559Z,101254.00
2023-03-15T16:37:46.764Z,101255.03
2023-03-15T16:40:21.415Z,101258.78
2023-03-15T16:42:51.448Z,101263.88
2023-03-15T16:45:21.081Z,101267.34
2023-03-15T16:47:51.144Z,101268.81
2023-03-15T16:50:23.286Z,101270.03
2023-03-15T16:52:55.755Z,101274.75
2023-03-15T16:55:27.250Z,101280.13
2023-03-15T16:57:56.867Z,101278.44
2023-03-15T17:00:26.733Z,101280.31
2023-03-15T17:02:59.828Z,101292.63
2023-03-15T17:05:31.818Z,101289.53
2023-03-15T17:08:03.178Z,101294.50
2023-03-15T17:10:34.542Z,101292.16
2023-03-15T17:13:04.925Z,101293.22
2023-03-15T17:15:34.304Z,101303.28
2023-03-15T17:18:03.544Z,101308.41
2023-03-15T17:20:35.388Z,101302.06
2023-03-15T17:23:07.006Z,101312.47
2023-03-15T17:25:37.134Z,101318.00
2023-03-15T17:28:07.038Z,101310.78
2023-03-15T17:30:37.874Z,101317.34
2023-03-15T17:33:07.988Z,101321.63
2023-03-15T17:35:43.719Z,101322.47
2023-03-15T17:38:19.496Z,101320.81
2023-03-15T17:40:48.869Z,101320.22
2023-03-15T17:43:19.111Z,101317.16
2023-03-15T17:45:48.395Z,101319.63
2023-03-15T17:48:17.958Z,101326.19
2023-03-15T17:50:49.827Z,101326.41
2023-03-15T17:53:21.197Z,101330.06
2023-03-15T17:55:53.464Z,101326.19
2023-03-15T17:58:24.693Z,101327.34
2023-03-15T18:00:55.244Z,101332.69
2023-03-15T18:03:24.811Z,101332.91
2023-03-15T18:05:56.713Z,101336.81
2023-03-15T18:08:25.958Z,101339.25
2023-03-15T18:10:55.370Z,101339.06
2023-03-15T18:13:28.222Z,101346.63
2023-03-15T18:15:57.557Z,101348.69
2023-03-15T18:18:27.213Z,101344.34
2023-03-15T18:20:59.003Z,101341.50
2023-03-15T18:23:28.653Z,101341.88
2023-03-15T18:25:57.898Z,101348.22
2023-03-15T18:28:27.156Z,101347.41
2023-03-15T18:30:56.367Z,101349.25
2023-03-15T18:33:26.563Z,101362.16
2023-03-15T18:35:55.889Z,101357.63
2023-03-15T18:38:27.817Z,101362.97
2023-03-15T18:40:58.517Z,101354.53
2023-03-15T18:43:28.103Z,101357.38
2023-03-15T18:45:57.381Z,101362.72
2023-03-15T18:48:39.716Z,101362.28
2023-03-15T18:51:12.503Z,101365.81
2023-03-15T18:53:45.355Z,101363.13
2023-03-15T18:56:19.348Z,101365.56
2023-03-15T18:58:49.085Z,101365.69
2023-03-15T19:01:18.857Z,101370.00
2023-03-15T19:03:48.301Z,101376.09
2023-03-15T19:06:18.421Z,101382.28
2023-03-15T19:08:53.562Z,101382.84
2023-03-15T19:11:24.083Z,101373.38
2023-03-15T19:13:53.506Z,101377.97
2023-03-15T19:16:24.378Z,101387.19
2023-03-15T19:18:55.357Z,101384.44
2023-03-15T19:21:26.272Z,101385.56
2023-03-15T19:23:58.375Z,101386.53
2023-03-15T19:26:27.716Z,101385.91
2023-03-15T19:28:56.910Z,101390.22
2023-03-15T19:31:26.373Z,101401.50
2023-03-15T19:33:55.693Z,101398.75
2023-03-15T19:36:25.512Z,101393.41
2023-03-15T19:38:54.719Z,101397.06
2023-03-15T19:41:27.031Z,101401.59
2023-03-15T19:43:56.255Z,101413.44
2023-03-15T19:46:25.632Z,101409.50
2023-03-15T19:48:54.907Z,101412.53
2023-03-15T19:51:24.241Z,101415.16
2023-03-15T19:53:53.591Z,101416.63
2023-03-15T19:56:22.791Z,101418.78
2023-03-15T19:58:56.249Z,101425.09
2023-03-15T20:01:25.962Z,101427.91
2023-03-15T20:03:55.284Z,101439.00
2023-03-15T20:06:24.514Z,101436.94
2023-03-15T20:08:53.729Z,101432.81
2023-03-15T20:11:25.282Z,101437.91
2023-03-15T20:13:57.461Z,101436.50
2023-03-15T20:16:26.916Z,101437.34
2023-03-15T20:18:56.186Z,101435.50
2023-03-15T20:21:25.602Z,101445.53
2023-03-15T20:23:54.814Z,101441.22
2023-03-15T20:26:28.174Z,101445.53
2023-03-15T20:29:00.008Z,101443.88
2023-03-15T20:31:29.229Z,101448.91
2023-03-15T20:33:58.479Z,101446.44
2023-03-15T20:36:28.335Z,101452.38
2023-03-15T20:38:57.589Z,101454.59
2023-03-15T20:41:26.837Z,101453.75
2023-03-15T20:43:56.018Z,101451.94
2023-03-15T20:46:29.542Z,101454.25
2023-03-15T20:48:58.899Z,101462.16
2023-03-15T20:51:28.192Z,101467.66
2023-03-15T20:53:57.650Z,101465.81
2023-03-15T20:56:26.982Z,101464.28
2023-03-15T20:58:56.257Z,101466.53
2023-03-15T21:01:28.039Z,101470.41
2023-03-15T21:03:57.530Z,101465.47
2023-03-15T21:06:26.779Z,101464.00
2023-03-15T21:08:55.973Z,101474.84
2023-03-15T21:11:25.203Z,101474.66
2023-03-15T21:13:55.288Z,101470.34
2023-03-15T21:16:26.219Z,101469.34
2023-03-15T21:18:58.299Z,101471.34
2023-03-15T21:21:27.591Z,101469.69
2023-03-15T21:23:57.180Z,101473.19
2023-03-15T21:26:26.413Z,101470.53
2023-03-15T21:28:55.679Z,101467.03
2023-03-15T21:31:24.984Z,101464.00
2023-03-15T21:33:54.221Z,101470.03
2023-03-15T21:36:26.074Z,101469.88
2023-03-15T21:38:55.294Z,101470.44
2023-03-15T21:41:24.501Z,101475.31
2023-03-15T21:43:53.707Z,101469.25
2023-03-15T21:46:23.835Z,101470.00
2023-03-15T21:48:53.289Z,101470.16
2023-03-15T21:51:22.558Z,101471.38
2023-03-15T21:53:54.363Z,101469.31
2023-03-15T21:56:26.318Z,101478.50
2023-03-15T21:58:56.218Z,101471.09
2023-03-15T22:01:25.466Z,101472.47
2023-03-15T22:03:55.826Z,101474.03
2023-03-15T22:06:25.150Z,101475.13
2023-03-15T22:08:56.978Z,101482.94
2023-03-15T22:11:26.281Z,101478.81
2023-03-15T22:13:55.506Z,101481.00
2023-03-15T22:16:24.852Z,101489.97
2023-03-15T22:18:54.103Z,101486.84
2023-03-15T22:21:23.339Z,101491.72
2023-03-15T22:23:52.522Z,101476.41
2023-03-15T22:26:24.634Z,101481.44
2023-03-15T22:28:54.125Z,101483.72
2023-03-15T22:31:23.421Z,101488.50
2023-03-15T22:33:52.654Z,101489.59
2023-03-15T22:36:23.513Z,101491.34
2023-03-15T22:38:53.169Z,101485.38
2023-03-15T22:41:24.999Z,101484.72
2023-03-15T22:43:55.254Z,101487.22
2023-03-15T22:46:25.182Z,101492.53
2023-03-15T22:48:54.514Z,101486.75
2023-03-15T22:51:23.859Z,101487.09
2023-03-15T22:53:53.118Z,101481.16
2023-03-15T22:56:24.970Z,101487.78
2023-03-15T22:58:55.624Z,101481.13
2023-03-15T23:01:24.953Z,101488.47
2023-03-15T23:03:54.364Z,101494.13
2023-03-15T23:06:23.640Z,101494.53
2023-03-15T23:08:52.845Z,101489.03
2023-03-15T23:11:24.641Z,101494.16
2023-03-15T23:13:53.884Z,101497.78
2023-03-15T23:16:23.480Z,101487.00
2023-03-15T23:18:52.853Z,101498.09
2023-03-15T23:21:22.108Z,101499.53
2023-03-15T23:23:51.326Z,101506.44
2023-03-15T23:26:20.759Z,101506.78
2023-03-15T23:28:52.567Z,101512.94
2023-03-15T23:31:22.605Z,101521.25
2023-03-15T23:33:51.823Z,101523.38
2023-03-15T23:36:21.061Z,101521.72
2023-03-15T23:38:50.288Z,101522.91
2023-03-15T23:41:19.538Z,101522.88
2023-03-15T23:43:48.796Z,101521.59
2023-03-15T23:46:23.659Z,101528.78
2023-03-15T23:48:53.223Z,101531.59
2023-03-15T23:51:22.650Z,101533.09
2023-03-15T23:53:51.846Z,101536.97
2023-03-15T23:56:21.074Z,101540.78
2023-03-15T23:58:50.264Z,101540.94
